Time;durP1;ratioP1;P1;durP2;ratioP2;P2;SDS_P1;SDS_P2;PMS_P1;PMS_P2;Temp;Humidity;BMP_temperature;BMP_pressure;BME280_temperature;BME280_humidity;BME280_pressure;Samples;Min_cycle;Max_cycle;Signal;HPM_P1;HPM_P2
2023/03/28 00:00:19;;;;;;;;;;;0.20;99.90;;;;;;5037494;28;19955;-81
2023/03/28 00:02:44;;;;;;;;;;;0.20;99.90;;;;;;5002732;28;19924;-82
2023/03/28 00:05:10;;;;;;;;;;;0.20;99.90;;;;;;5019374;28;19914;-82
2023/03/28 00:07:36;;;;;;;;;;;0.30;99.90;;;;;;5035894;28;19948;-82
2023/03/28 00:10:02;;;;;;;;;;;0.30;99.90;;;;;;5036999;28;19966;-82
2023/03/28 00:12:28;;;;;;;;;;;0.30;99.90;;;;;;5036866;28;19920;-82
2023/03/28 00:14:56;;;;;;;;;;;0.30;99.90;;;;;;5019171;28;19913;-82
2023/03/28 00:17:23;;;;;;;;;;;0.30;99.90;;;;;;5019605;28;19917;-82
2023/03/28 00:19:49;;;;;;;;;;;0.30;99.90;;;;;;5002746;28;19917;-82
2023/03/28 00:22:15;;;;;;;;;;;0.20;99.90;;;;;;5019575;28;19913;-81
2023/03/28 00:24:40;;;;;;;;;;;0.20;99.90;;;;;;5019290;28;19913;-82
2023/03/28 00:27:06;;;;;;;;;;;0.20;99.90;;;;;;5036820;28;20369;-81
2023/03/28 00:29:33;;;;;;;;;;;0.10;99.90;;;;;;5019359;28;20373;-81
2023/03/28 00:31:59;;;;;;;;;;;0.10;99.90;;;;;;5019322;28;19935;-81
2023/03/28 00:34:24;;;;;;;;;;;0.10;99.90;;;;;;5019287;28;19909;-81
2023/03/28 00:36:52;;;;;;;;;;;0.10;99.90;;;;;;5035862;28;20293;-81
2023/03/28 00:39:18;;;;;;;;;;;0.10;99.90;;;;;;5003268;28;19936;-81
2023/03/28 00:41:44;;;;;;;;;;;0.10;99.90;;;;;;5019351;28;20365;-81
2023/03/28 00:44:29;;;;;;;;;;;0.10;99.90;;;;;;5002854;28;19917;-81
2023/03/28 00:46:55;;;;;;;;;;;0.10;99.90;;;;;;5036961;28;19987;-81
2023/03/28 00:49:23;;;;;;;;;;;0.10;99.90;;;;;;5035768;28;19913;-81
2023/03/28 00:51:55;;;;;;;;;;;0.00;99.90;;;;;;5018987;28;19909;-81
2023/03/28 00:54:22;;;;;;;;;;;0.00;99.90;;;;;;5037491;28;19948;-81
2023/03/28 00:56:49;;;;;;;;;;;0.10;99.90;;;;;;5036935;28;19963;-81
2023/03/28 00:59:17;;;;;;;;;;;0.10;99.90;;;;;;5019005;28;19916;-81
2023/03/28 01:01:43;;;;;;;;;;;0.10;99.90;;;;;;5018995;28;19909;-83
2023/03/28 01:04:08;;;;;;;;;;;0.00;99.90;;;;;;5018670;28;20008;-83
2023/03/28 01:06:39;;;;;;;;;;;0.00;99.90;;;;;;5018932;28;19959;-83
2023/03/28 01:09:06;;;;;;;;;;;0.00;99.90;;;;;;5036580;28;19939;-83
2023/03/28 01:11:34;;;;;;;;;;;-0.10;99.90;;;;;;5036698;28;20297;-84
2023/03/28 01:14:01;;;;;;;;;;;-0.20;99.90;;;;;;5036286;28;19909;-84
2023/03/28 01:16:29;;;;;;;;;;;-0.20;99.90;;;;;;5002389;28;20079;-83
2023/03/28 01:19:00;;;;;;;;;;;-0.30;99.90;;;;;;5002761;28;20381;-83
2023/03/28 01:21:48;;;;;;;;;;;-0.30;99.90;;;;;;5018674;28;19920;-83
2023/03/28 01:24:20;;;;;;;;;;;-0.30;99.90;;;;;;5036202;28;19909;-83
2023/03/28 01:26:53;;;;;;;;;;;-0.30;99.90;;;;;;5036276;28;20047;-83
2023/03/28 01:29:27;;;;;;;;;;;-0.30;99.90;;;;;;5018273;28;20004;-83
2023/03/28 01:31:56;;;;;;;;;;;-0.20;99.90;;;;;;5018294;28;19909;-83
2023/03/28 01:34:40;;;;;;;;;;;-0.20;99.90;;;;;;5018645;28;20376;-83
2023/03/28 01:37:06;;;;;;;;;;;-0.20;99.90;;;;;;5018025;28;19917;-83
2023/03/28 01:39:51;;;;;;;;;;;-0.20;99.90;;;;;;5018217;28;20008;-83
2023/03/28 01:42:25;;;;;;;;;;;-0.20;99.90;;;;;;5018006;28;19913;-82
2023/03/28 01:44:59;;;;;;;;;;;-0.20;99.90;;;;;;5019011;28;19932;-83
2023/03/28 01:47:25;;;;;;;;;;;-0.20;99.90;;;;;;5017807;28;19909;-83
2023/03/28 01:49:51;;;;;;;;;;;-0.20;99.90;;;;;;5018016;28;20361;-83
2023/03/28 01:52:20;;;;;;;;;;;-0.30;99.90;;;;;;5035621;28;19913;-83
2023/03/28 01:55:25;;;;;;;;;;;-0.20;99.90;;;;;;5018045;28;19909;-83
2023/03/28 01:57:55;;;;;;;;;;;-0.20;99.90;;;;;;4957921;28;19910;-83
2023/03/28 02:00:29;;;;;;;;;;;-0.20;99.90;;;;;;4958652;28;19917;-83
2023/03/28 02:03:10;;;;;;;;;;;-0.20;99.90;;;;;;4991637;28;19913;-83
2023/03/28 02:05:37;;;;;;;;;;;-0.20;99.90;;;;;;5035803;28;19909;-83
2023/03/28 02:08:04;;;;;;;;;;;-0.10;99.90;;;;;;5035721;28;19959;-83
2023/03/28 02:10:31;;;;;;;;;;;-0.10;99.90;;;;;;5018029;28;20422;-83
2023/03/28 02:12:59;;;;;;;;;;;-0.10;99.90;;;;;;5017570;28;19913;-82
2023/03/28 02:15:26;;;;;;;;;;;-0.10;99.90;;;;;;5035567;28;19909;-83
2023/03/28 02:17:55;;;;;;;;;;;-0.20;99.90;;;;;;5017628;28;19909;-83
2023/03/28 02:20:23;;;;;;;;;;;-0.20;99.90;;;;;;5018148;28;19924;-83
2023/03/28 02:22:49;;;;;;;;;;;-0.30;99.90;;;;;;5034864;28;19967;-83
2023/03/28 02:25:14;;;;;;;;;;;-0.30;99.90;;;;;;5043739;28;19909;-83
2023/03/28 02:27:42;;;;;;;;;;;-0.30;99.90;;;;;;5055222;28;19909;-83
2023/03/28 02:30:08;;;;;;;;;;;-0.30;99.90;;;;;;5054971;28;19913;-83
2023/03/28 02:32:34;;;;;;;;;;;-0.30;99.90;;;;;;5055523;28;19924;-83
2023/03/28 02:35:01;;;;;;;;;;;-0.30;99.90;;;;;;5037080;28;19916;-83
2023/03/28 02:37:30;;;;;;;;;;;-0.30;99.90;;;;;;5037364;28;20300;-82
2023/03/28 02:40:11;;;;;;;;;;;-0.20;99.90;;;;;;5055178;28;20003;-83
2023/03/28 02:42:52;;;;;;;;;;;-0.20;99.90;;;;;;5037351;28;20319;-83
2023/03/28 02:45:36;;;;;;;;;;;-0.10;99.90;;;;;;5055168;28;19955;-83
2023/03/28 02:48:20;;;;;;;;;;;-0.10;99.90;;;;;;5055138;28;19909;-83
2023/03/28 02:50:59;;;;;;;;;;;-0.10;99.90;;;;;;5037250;28;19958;-83
2023/03/28 02:53:35;;;;;;;;;;;-0.10;99.90;;;;;;5054817;28;20373;-83
2023/03/28 02:56:00;;;;;;;;;;;-0.10;99.90;;;;;;5036948;28;19909;-83
2023/03/28 02:58:36;;;;;;;;;;;-0.10;99.90;;;;;;5036713;28;20288;-83
2023/03/28 03:01:02;;;;;;;;;;;-0.10;99.90;;;;;;5054977;28;19909;-83
2023/03/28 03:03:28;;;;;;;;;;;-0.10;99.90;;;;;;5054475;28;19912;-83
2023/03/28 03:05:53;;;;;;;;;;;-0.10;99.90;;;;;;5054590;28;19966;-83
2023/03/28 03:08:19;;;;;;;;;;;-0.10;99.90;;;;;;5036949;28;19920;-83
2023/03/28 03:10:45;;;;;;;;;;;-0.10;99.90;;;;;;5054360;28;19941;-82
2023/03/28 03:13:11;;;;;;;;;;;-0.10;99.90;;;;;;5036353;28;20430;-83
2023/03/28 03:15:37;;;;;;;;;;;-0.10;99.90;;;;;;5037009;28;20312;-83
2023/03/28 03:18:03;;;;;;;;;;;-0.10;99.90;;;;;;5054982;28;20008;-83
2023/03/28 03:20:32;;;;;;;;;;;-0.10;99.90;;;;;;5036922;28;20016;-83
2023/03/28 03:22:58;;;;;;;;;;;-0.10;99.90;;;;;;5020453;28;19927;-83
2023/03/28 03:25:23;;;;;;;;;;;-0.10;99.90;;;;;;5037303;28;19909;-83
2023/03/28 03:27:49;;;;;;;;;;;0.00;99.90;;;;;;5054923;28;19935;-83
2023/03/28 03:30:15;;;;;;;;;;;-0.10;99.90;;;;;;5037108;28;19920;-82
2023/03/28 03:32:42;;;;;;;;;;;-0.10;99.90;;;;;;5054538;28;20360;-83
2023/03/28 03:35:08;;;;;;;;;;;-0.10;99.90;;;;;;5054107;28;19917;-83
2023/03/28 03:37:34;;;;;;;;;;;-0.10;99.90;;;;;;5036984;28;19920;-83
2023/03/28 03:39:59;;;;;;;;;;;-0.10;99.90;;;;;;5036682;28;19916;-83
2023/03/28 03:42:25;;;;;;;;;;;-0.10;99.90;;;;;;5037930;28;19917;-82
2023/03/28 03:44:53;;;;;;;;;;;-0.10;99.90;;;;;;5058054;28;20391;-83
2023/03/28 03:47:19;;;;;;;;;;;-0.10;99.90;;;;;;5040515;28;19913;-82
2023/03/28 03:49:44;;;;;;;;;;;-0.10;99.90;;;;;;5040225;28;19909;-82
2023/03/28 03:52:10;;;;;;;;;;;-0.10;99.90;;;;;;5023895;28;19995;-83
2023/03/28 03:54:35;;;;;;;;;;;-0.10;99.90;;;;;;5058207;28;19913;-83
2023/03/28 03:57:01;;;;;;;;;;;-0.10;99.90;;;;;;5058163;28;20265;-83
2023/03/28 03:59:27;;;;;;;;;;;-0.10;99.90;;;;;;5057906;28;19916;-83
2023/03/28 04:01:54;;;;;;;;;;;-0.10;99.90;;;;;;5060215;28;19909;-85
2023/03/28 04:04:20;;;;;;;;;;;-0.20;99.90;;;;;;5024153;28;20000;-84
2023/03/28 04:06:46;;;;;;;;;;;-0.20;99.90;;;;;;5058521;28;19908;-84
2023/03/28 04:09:12;;;;;;;;;;;-0.20;99.90;;;;;;5039850;28;20025;-85
2023/03/28 04:11:37;;;;;;;;;;;-0.20;99.90;;;;;;5040370;28;19912;-85
2023/03/28 04:14:03;;;;;;;;;;;-0.20;99.90;;;;;;5039728;28;19909;-84
2023/03/28 04:16:29;;;;;;;;;;;-0.30;99.90;;;;;;5039548;28;19909;-84
2023/03/28 04:18:55;;;;;;;;;;;-0.30;99.90;;;;;;5057357;28;19956;-83
2023/03/28 04:21:26;;;;;;;;;;;-0.40;99.90;;;;;;5058216;28;19958;-83
2023/03/28 04:23:51;;;;;;;;;;;-0.40;99.90;;;;;;5039968;28;19917;-83
2023/03/28 04:26:24;;;;;;;;;;;-0.40;99.90;;;;;;5039832;28;19917;-82
2023/03/28 04:28:51;;;;;;;;;;;-0.40;99.90;;;;;;5024165;28;19920;-83
2023/03/28 04:31:17;;;;;;;;;;;-0.50;99.90;;;;;;5040299;28;20417;-83
2023/03/28 04:33:44;;;;;;;;;;;-0.50;99.90;;;;;;5040103;28;19920;-83
2023/03/28 04:36:10;;;;;;;;;;;-0.50;99.90;;;;;;5039978;28;19921;-83
2023/03/28 04:38:35;;;;;;;;;;;-0.60;99.90;;;;;;5040193;28;19909;-81
2023/03/28 04:41:02;;;;;;;;;;;-0.50;99.90;;;;;;5058831;28;19909;-83
2023/03/28 04:43:28;;;;;;;;;;;-0.50;99.90;;;;;;5039747;28;19921;-83
2023/03/28 04:45:54;;;;;;;;;;;-0.50;99.90;;;;;;5057762;28;19909;-84
2023/03/28 04:48:20;;;;;;;;;;;-0.50;99.90;;;;;;5056442;28;19962;-84
2023/03/28 04:50:46;;;;;;;;;;;-0.60;99.90;;;;;;5056236;28;19960;-85
2023/03/28 04:53:11;;;;;;;;;;;-0.50;99.90;;;;;;5056192;28;20407;-85
2023/03/28 04:55:38;;;;;;;;;;;-0.50;99.90;;;;;;5038439;28;20426;-85
2023/03/28 04:58:03;;;;;;;;;;;-0.50;99.90;;;;;;5038835;28;19909;-84
2023/03/28 05:00:29;;;;;;;;;;;-0.50;99.90;;;;;;5021790;28;19920;-85
2023/03/28 05:02:55;;;;;;;;;;;-0.40;99.90;;;;;;5038535;28;19956;-84
2023/03/28 05:05:21;;;;;;;;;;;-0.40;99.90;;;;;;5038080;28;19909;-83
2023/03/28 05:07:47;;;;;;;;;;;-0.40;99.90;;;;;;5055651;28;19909;-84
2023/03/28 05:10:12;;;;;;;;;;;-0.40;99.90;;;;;;5038158;28;19934;-84
2023/03/28 05:12:38;;;;;;;;;;;-0.40;99.90;;;;;;5038268;28;20392;-85
2023/03/28 05:15:05;;;;;;;;;;;-0.40;99.90;;;;;;5021337;28;20010;-85
2023/03/28 05:17:30;;;;;;;;;;;-0.40;99.90;;;;;;5038041;28;19920;-85
2023/03/28 05:19:56;;;;;;;;;;;-0.40;99.90;;;;;;5037652;28;19913;-85
2023/03/28 05:22:21;;;;;;;;;;;-0.30;99.90;;;;;;5021353;28;19913;-85
2023/03/28 05:24:47;;;;;;;;;;;-0.30;99.90;;;;;;5037627;28;19917;-84
2023/03/28 05:27:13;;;;;;;;;;;-0.30;99.90;;;;;;5021769;28;19920;-85
2023/03/28 05:29:38;;;;;;;;;;;-0.30;99.90;;;;;;5021020;28;19913;-85
2023/03/28 05:32:04;;;;;;;;;;;-0.30;99.90;;;;;;5055357;28;19941;-85
2023/03/28 05:34:29;;;;;;;;;;;-0.30;99.90;;;;;;5020983;28;19912;-85
2023/03/28 05:36:58;;;;;;;;;;;-0.30;99.90;;;;;;5037620;28;20332;-85
2023/03/28 05:39:23;;;;;;;;;;;-0.30;99.90;;;;;;5021709;28;19913;-85
2023/03/28 05:41:49;;;;;;;;;;;-0.20;99.90;;;;;;5020940;28;20012;-85
2023/03/28 05:44:14;;;;;;;;;;;-0.20;99.90;;;;;;5021054;28;19924;-85
2023/03/28 05:46:40;;;;;;;;;;;-0.20;99.90;;;;;;5021009;28;19913;-85
2023/03/28 05:49:06;;;;;;;;;;;-0.20;99.90;;;;;;5020909;28;20361;-85
2023/03/28 05:51:32;;;;;;;;;;;-0.10;99.90;;;;;;5037001;28;19908;-85
2023/03/28 05:53:57;;;;;;;;;;;-0.20;99.90;;;;;;5037231;28;19924;-85
2023/03/28 05:56:23;;;;;;;;;;;-0.20;99.90;;;;;;5037330;28;19912;-85
2023/03/28 05:58:48;;;;;;;;;;;-0.10;99.90;;;;;;5037209;28;19913;-85
2023/03/28 06:01:16;;;;;;;;;;;-0.10;99.90;;;;;;5037083;28;20434;-83
2023/03/28 06:03:44;;;;;;;;;;;-0.10;99.90;;;;;;5037041;28;19920;-85
2023/03/28 06:06:10;;;;;;;;;;;-0.10;99.90;;;;;;5054395;28;19912;-85
2023/03/28 06:08:35;;;;;;;;;;;-0.20;99.90;;;;;;5035401;28;19915;-83
2023/03/28 06:11:01;;;;;;;;;;;-0.20;99.90;;;;;;5053262;28;19948;-84
2023/03/28 06:13:27;;;;;;;;;;;-0.20;99.90;;;;;;5035041;28;19923;-84
2023/03/28 06:15:53;;;;;;;;;;;-0.20;99.90;;;;;;5035120;28;19909;-84
2023/03/28 06:18:18;;;;;;;;;;;-0.20;99.90;;;;;;5035089;28;20437;-84
2023/03/28 06:20:44;;;;;;;;;;;-0.10;99.90;;;;;;5035312;28;19948;-83
2023/03/28 06:23:10;;;;;;;;;;;-0.10;99.90;;;;;;5035726;28;19912;-85
2023/03/28 06:25:35;;;;;;;;;;;-0.10;99.90;;;;;;5039264;28;20403;-85
2023/03/28 06:28:01;;;;;;;;;;;0.00;99.90;;;;;;5022472;28;19920;-84
2023/03/28 06:30:27;;;;;;;;;;;0.00;99.90;;;;;;5037259;28;20388;-85
2023/03/28 06:32:52;;;;;;;;;;;-0.10;99.90;;;;;;5020046;28;19913;-84
2023/03/28 06:35:18;;;;;;;;;;;0.00;99.90;;;;;;5036408;28;20003;-84
2023/03/28 06:37:43;;;;;;;;;;;-0.10;99.90;;;;;;5019916;28;19916;-84
2023/03/28 06:40:09;;;;;;;;;;;-0.10;99.90;;;;;;5036550;28;19913;-84
2023/03/28 06:42:35;;;;;;;;;;;-0.20;99.90;;;;;;5020008;28;19917;-85
2023/03/28 06:45:01;;;;;;;;;;;-0.20;99.90;;;;;;5019982;28;19924;-84
2023/03/28 06:47:27;;;;;;;;;;;-0.10;99.90;;;;;;5037373;28;20262;-84
2023/03/28 06:49:52;;;;;;;;;;;-0.10;99.90;;;;;;5036439;28;19913;-84
2023/03/28 06:52:18;;;;;;;;;;;0.00;99.90;;;;;;5019507;28;20357;-83
2023/03/28 06:54:44;;;;;;;;;;;0.00;99.90;;;;;;5053892;28;20293;-84
2023/03/28 06:57:09;;;;;;;;;;;0.10;99.90;;;;;;5036179;28;19917;-84
2023/03/28 06:59:35;;;;;;;;;;;0.20;99.90;;;;;;5036409;28;20246;-83
2023/03/28 07:02:00;;;;;;;;;;;0.20;99.90;;;;;;5053914;28;19920;-83
2023/03/28 07:04:26;;;;;;;;;;;0.20;99.90;;;;;;5019643;28;19924;-84
2023/03/28 07:06:51;;;;;;;;;;;0.30;99.90;;;;;;5036428;28;19920;-84
2023/03/28 07:09:17;;;;;;;;;;;0.30;99.90;;;;;;5035955;28;19962;-84
2023/03/28 07:11:43;;;;;;;;;;;0.30;99.90;;;;;;5035960;28;20013;-84
2023/03/28 07:14:08;;;;;;;;;;;0.40;99.90;;;;;;5036191;28;19920;-84
2023/03/28 07:16:34;;;;;;;;;;;0.50;99.90;;;;;;5019692;28;19920;-84
2023/03/28 07:18:59;;;;;;;;;;;0.70;99.90;;;;;;5023578;28;19913;-84
2023/03/28 07:21:25;;;;;;;;;;;0.80;99.90;;;;;;5040045;28;19920;-84
2023/03/28 07:23:51;;;;;;;;;;;0.90;99.90;;;;;;5057800;28;19995;-84
2023/03/28 07:26:16;;;;;;;;;;;1.00;99.90;;;;;;5057712;28;19909;-84
2023/03/28 07:28:42;;;;;;;;;;;1.10;99.90;;;;;;5058027;28;19967;-84
2023/03/28 07:31:07;;;;;;;;;;;1.20;99.90;;;;;;5023794;28;19923;-84
2023/03/28 07:33:34;;;;;;;;;;;1.20;99.90;;;;;;5023663;28;19967;-84
2023/03/28 07:36:05;;;;;;;;;;;1.20;99.90;;;;;;5057747;28;20392;-84
2023/03/28 07:38:30;;;;;;;;;;;1.40;99.90;;;;;;5039898;28;19916;-84
2023/03/28 07:40:59;;;;;;;;;;;1.50;99.90;;;;;;5057993;28;19913;-84
2023/03/28 07:43:24;;;;;;;;;;;1.60;99.90;;;;;;5057402;28;19913;-84
2023/03/28 07:45:51;;;;;;;;;;;1.70;99.90;;;;;;5039910;28;19920;-84
2023/03/28 07:48:16;;;;;;;;;;;1.80;99.90;;;;;;5023217;28;19916;-84
2023/03/28 07:50:43;;;;;;;;;;;1.80;99.90;;;;;;5057539;28;19976;-84
2023/03/28 07:53:09;;;;;;;;;;;1.70;99.90;;;;;;5039720;28;19912;-84
2023/03/28 07:55:35;;;;;;;;;;;1.70;99.90;;;;;;5023101;28;19913;-83
2023/03/28 07:58:01;;;;;;;;;;;1.80;99.90;;;;;;5039509;28;19913;-83
2023/03/28 08:00:27;;;;;;;;;;;1.90;99.90;;;;;;5057525;28;19913;-83
2023/03/28 08:02:52;;;;;;;;;;;2.00;99.90;;;;;;5057307;28;19935;-83
2023/03/28 08:05:18;;;;;;;;;;;2.00;99.90;;;;;;5023127;28;19966;-83
2023/03/28 08:07:46;;;;;;;;;;;2.10;99.90;;;;;;5039408;28;19956;-83
2023/03/28 08:10:12;;;;;;;;;;;2.10;99.90;;;;;;5039419;28;19984;-84
2023/03/28 08:12:38;;;;;;;;;;;2.10;99.90;;;;;;5039567;28;19916;-84
2023/03/28 08:15:04;;;;;;;;;;;2.20;99.90;;;;;;5022872;28;20296;-84
2023/03/28 08:17:30;;;;;;;;;;;2.10;99.90;;;;;;5022520;28;19935;-84
2023/03/28 08:19:55;;;;;;;;;;;2.10;99.90;;;;;;5022835;28;20254;-84
2023/03/28 08:22:21;;;;;;;;;;;2.20;99.90;;;;;;5022431;28;19913;-83
2023/03/28 08:24:47;;;;;;;;;;;2.30;99.90;;;;;;5039080;28;20320;-84
2023/03/28 08:27:12;;;;;;;;;;;2.40;99.90;;;;;;5022425;28;19955;-84
2023/03/28 08:29:38;;;;;;;;;;;2.40;99.90;;;;;;5038196;28;19912;-84
2023/03/28 08:32:05;;;;;;;;;;;2.50;99.90;;;;;;5038839;28;19913;-84
2023/03/28 08:34:31;;;;;;;;;;;2.50;99.90;;;;;;5022780;28;19935;-84
2023/03/28 08:36:57;;;;;;;;;;;2.40;99.90;;;;;;5038833;28;20384;-84
2023/03/28 08:39:23;;;;;;;;;;;2.40;99.90;;;;;;5038910;28;19909;-84
2023/03/28 08:42:08;;;;;;;;;;;2.50;99.90;;;;;;5038622;28;19947;-84
2023/03/28 08:44:43;;;;;;;;;;;2.50;99.90;;;;;;5056747;28;19912;-84
2023/03/28 08:47:20;;;;;;;;;;;2.60;99.90;;;;;;5057780;28;19909;-84
2023/03/28 08:49:52;;;;;;;;;;;2.60;99.90;;;;;;5038091;28;19916;-85
2023/03/28 08:52:19;;;;;;;;;;;2.70;99.90;;;;;;5038046;28;19916;-85
2023/03/28 08:54:53;;;;;;;;;;;2.70;99.90;;;;;;5037908;28;19909;-85
2023/03/28 08:57:20;;;;;;;;;;;2.70;99.90;;;;;;5039645;28;19916;-84
2023/03/28 08:59:58;;;;;;;;;;;2.70;99.90;;;;;;5038289;28;19916;-85
2023/03/28 09:02:26;;;;;;;;;;;2.70;99.90;;;;;;5037824;28;19909;-85
2023/03/28 09:04:52;;;;;;;;;;;2.70;99.90;;;;;;5055804;28;19909;-85
2023/03/28 09:07:37;;;;;;;;;;;2.70;99.90;;;;;;5037894;28;20376;-85
2023/03/28 09:10:21;;;;;;;;;;;2.60;99.90;;;;;;5038104;28;20423;-85
2023/03/28 09:13:01;;;;;;;;;;;2.70;99.90;;;;;;5037607;28;19912;-85
2023/03/28 09:15:46;;;;;;;;;;;2.60;99.90;;;;;;5037703;28;20000;-85
2023/03/28 09:18:17;;;;;;;;;;;2.60;99.90;;;;;;5037689;28;19958;-85
2023/03/28 09:20:52;;;;;;;;;;;2.50;99.90;;;;;;5055443;28;19916;-85
2023/03/28 09:23:36;;;;;;;;;;;2.40;99.90;;;;;;5055166;28;19920;-85
2023/03/28 09:26:06;;;;;;;;;;;2.40;99.90;;;;;;5037330;28;19963;-85
2023/03/28 09:28:32;;;;;;;;;;;2.30;99.90;;;;;;5037234;28;19909;-84
2023/03/28 09:30:57;;;;;;;;;;;2.40;99.90;;;;;;5037212;28;19913;-84
2023/03/28 09:33:33;;;;;;;;;;;2.50;99.90;;;;;;5054991;28;20448;-85
2023/03/28 09:35:59;;;;;;;;;;;2.80;99.90;;;;;;5054849;28;19963;-85
2023/03/28 09:38:29;;;;;;;;;;;3.00;99.90;;;;;;5037052;28;19940;-85
2023/03/28 09:40:57;;;;;;;;;;;3.20;99.90;;;;;;5038088;28;19909;-86
2023/03/28 09:43:40;;;;;;;;;;;3.30;99.90;;;;;;5038065;28;19913;-84
2023/03/28 09:46:08;;;;;;;;;;;3.40;99.90;;;;;;5037930;28;20295;-84
2023/03/28 09:48:35;;;;;;;;;;;3.30;99.90;;;;;;5037063;28;19909;-85
2023/03/28 09:51:01;;;;;;;;;;;3.20;99.90;;;;;;5054742;28;19909;-85
2023/03/28 09:53:28;;;;;;;;;;;3.20;99.90;;;;;;5036958;28;20002;-85
2023/03/28 09:55:55;;;;;;;;;;;3.10;99.90;;;;;;5036678;28;19909;-85
2023/03/28 09:58:20;;;;;;;;;;;3.00;99.90;;;;;;5036721;28;20003;-85
2023/03/28 10:00:50;;;;;;;;;;;3.00;99.90;;;;;;5054465;28;19948;-85
2023/03/28 10:03:29;;;;;;;;;;;3.00;99.90;;;;;;5036412;28;20015;-85
2023/03/28 10:05:55;;;;;;;;;;;3.20;99.90;;;;;;5054377;28;20373;-85
2023/03/28 10:08:27;;;;;;;;;;;3.50;99.90;;;;;;5054232;28;19994;-85
2023/03/28 10:10:53;;;;;;;;;;;3.70;99.90;;;;;;5036442;28;20283;-86
2023/03/28 10:13:19;;;;;;;;;;;3.80;99.90;;;;;;5036327;28;19909;-86
2023/03/28 10:15:45;;;;;;;;;;;3.80;99.90;;;;;;5019967;28;19920;-86
2023/03/28 10:18:20;;;;;;;;;;;3.80;99.90;;;;;;5056221;28;19962;-85
2023/03/28 10:20:47;;;;;;;;;;;3.90;99.90;;;;;;5036177;28;19908;-85
2023/03/28 10:23:13;;;;;;;;;;;4.20;99.90;;;;;;5036151;28;19963;-85
2023/03/28 10:25:41;;;;;;;;;;;4.40;99.90;;;;;;5036116;28;19909;-86
2023/03/28 10:28:12;;;;;;;;;;;4.60;99.90;;;;;;5054046;28;19948;-86
2023/03/28 10:30:39;;;;;;;;;;;4.70;99.90;;;;;;5036315;28;19971;-86
2023/03/28 10:33:16;;;;;;;;;;;4.80;99.90;;;;;;5036440;28;19924;-85
2023/03/28 10:35:56;;;;;;;;;;;4.80;99.90;;;;;;5035910;28;19917;-86
2023/03/28 10:38:23;;;;;;;;;;;4.80;99.90;;;;;;5036334;28;20349;-86
2023/03/28 10:41:08;;;;;;;;;;;5.10;99.90;;;;;;5036073;28;20407;-86
2023/03/28 10:43:35;;;;;;;;;;;5.30;99.90;;;;;;5053684;28;19978;-87
2023/03/28 10:46:02;;;;;;;;;;;5.40;99.90;;;;;;5035991;28;19956;-87
2023/03/28 10:48:29;;;;;;;;;;;5.50;99.90;;;;;;5035916;28;19999;-87
2023/03/28 10:50:56;;;;;;;;;;;5.50;99.90;;;;;;5056226;28;19909;-87
2023/03/28 10:53:22;;;;;;;;;;;5.50;99.70;;;;;;5059893;28;19909;-86
2023/03/28 10:56:05;;;;;;;;;;;5.40;99.90;;;;;;5042559;28;19913;-87
2023/03/28 10:58:36;;;;;;;;;;;5.30;99.90;;;;;;5060253;28;19909;-87
2023/03/28 11:01:01;;;;;;;;;;;5.30;99.70;;;;;;5042460;28;20416;-87
2023/03/28 11:03:33;;;;;;;;;;;5.50;99.90;;;;;;5042271;28;20007;-87
2023/03/28 11:06:05;;;;;;;;;;;5.70;99.90;;;;;;5042405;28;20019;-87
2023/03/28 11:08:37;;;;;;;;;;;5.90;99.90;;;;;;5042385;28;20016;-87
2023/03/28 11:11:14;;;;;;;;;;;5.90;99.90;;;;;;5042304;28;19909;-87
2023/03/28 11:13:46;;;;;;;;;;;6.00;98.70;;;;;;5060181;28;19916;-87
2023/03/28 11:16:12;;;;;;;;;;;6.00;99.90;;;;;;5060203;28;20385;-87
2023/03/28 11:18:42;;;;;;;;;;;5.90;95.80;;;;;;5042205;28;19912;-87
2023/03/28 11:21:21;;;;;;;;;;;5.80;96.40;;;;;;5060253;28;19948;-87
2023/03/28 11:23:53;;;;;;;;;;;5.80;96.50;;;;;;5060263;28;19920;-87
2023/03/28 11:26:29;;;;;;;;;;;5.70;97.70;;;;;;5041196;28;20280;-87
2023/03/28 11:28:54;;;;;;;;;;;5.80;99.80;;;;;;5040112;28;19909;-87
2023/03/28 11:31:23;;;;;;;;;;;5.80;97.30;;;;;;5022272;28;19954;-86
2023/03/28 11:33:51;;;;;;;;;;;5.80;96.80;;;;;;5040074;28;19913;-87
2023/03/28 11:36:56;;;;;;;;;;;5.80;95.30;;;;;;5022148;28;20325;-88
2023/03/28 11:39:43;;;;;;;;;;;5.90;98.10;;;;;;4980791;28;19910;-88
2023/03/28 11:42:11;;;;;;;;;;;6.20;96.70;;;;;;4962862;28;19917;-88
2023/03/28 11:44:41;;;;;;;;;;;6.20;97.10;;;;;;5017513;28;19913;-86
2023/03/28 11:47:19;;;;;;;;;;;6.00;95.30;;;;;;5021916;28;20016;-87
2023/03/28 11:49:51;;;;;;;;;;;6.00;95.80;;;;;;5022124;28;19959;-88
2023/03/28 11:52:41;;;;;;;;;;;6.10;98.10;;;;;;5039923;28;19909;-88
2023/03/28 11:55:17;;;;;;;;;;;6.40;98.70;;;;;;5022194;28;20361;-89
2023/03/28 11:58:02;;;;;;;;;;;6.80;97.20;;;;;;5040276;28;19916;-86
2023/03/28 12:00:40;;;;;;;;;;;7.00;95.30;;;;;;5040201;28;19917;-86
2023/03/28 12:03:18;;;;;;;;;;;7.30;94.20;;;;;;5021188;28;19913;-87
2023/03/28 12:05:51;;;;;;;;;;;7.30;94.90;;;;;;5036842;28;19959;-86
2023/03/28 12:08:29;;;;;;;;;;;7.10;93.80;;;;;;5019081;28;19909;-86
2023/03/28 12:10:57;;;;;;;;;;;7.10;95.80;;;;;;5018970;28;19916;-85
2023/03/28 12:13:30;;;;;;;;;;;7.10;93.80;;;;;;5018973;28;20000;-85
2023/03/28 12:15:58;;;;;;;;;;;7.20;92.30;;;;;;5019111;28;19910;-84
2023/03/28 12:18:56;;;;;;;;;;;7.20;90.30;;;;;;5036787;28;19959;-83
2023/03/28 12:21:26;;;;;;;;;;;7.00;91.20;;;;;;5025040;28;19945;-84
2023/03/28 12:23:58;;;;;;;;;;;7.00;92.70;;;;;;5018978;28;19922;-84
2023/03/28 12:26:34;;;;;;;;;;;7.10;89.90;;;;;;5036617;28;20415;-83
2023/03/28 12:29:05;;;;;;;;;;;7.20;91.70;;;;;;5036955;28;20269;-83
2023/03/28 12:31:37;;;;;;;;;;;7.40;91.80;;;;;;5018751;28;19916;-83
2023/03/28 12:34:22;;;;;;;;;;;7.40;90.10;;;;;;5018844;28;20452;-83
2023/03/28 12:37:11;;;;;;;;;;;7.40;90.00;;;;;;5018691;28;20388;-84
2023/03/28 12:39:40;;;;;;;;;;;7.20;89.70;;;;;;5023027;28;19956;-84
2023/03/28 12:42:08;;;;;;;;;;;7.10;89.30;;;;;;5018644;28;20365;-83
2023/03/28 12:44:46;;;;;;;;;;;7.20;91.20;;;;;;5036144;28;19913;-84
2023/03/28 12:47:17;;;;;;;;;;;7.40;92.00;;;;;;5036601;28;19913;-84
2023/03/28 12:49:54;;;;;;;;;;;7.40;91.10;;;;;;5036453;28;19909;-83
2023/03/28 12:52:42;;;;;;;;;;;7.40;89.10;;;;;;5018444;28;19963;-84
2023/03/28 12:55:23;;;;;;;;;;;7.50;90.50;;;;;;5018503;28;19913;-83
2023/03/28 12:57:49;;;;;;;;;;;7.40;87.80;;;;;;5018470;28;19913;-83
2023/03/28 13:00:24;;;;;;;;;;;7.30;85.40;;;;;;5036485;28;19921;-83
2023/03/28 13:02:53;;;;;;;;;;;7.10;85.90;;;;;;5018649;28;19921;-83
2023/03/28 13:05:23;;;;;;;;;;;7.00;89.60;;;;;;5036440;28;20369;-83
2023/03/28 13:08:07;;;;;;;;;;;7.10;88.70;;;;;;5018443;28;19935;-83
2023/03/28 13:10:52;;;;;;;;;;;7.20;88.40;;;;;;5036298;28;19916;-83
2023/03/28 13:13:20;;;;;;;;;;;7.30;90.60;;;;;;5036888;28;19932;-82
2023/03/28 13:16:01;;;;;;;;;;;7.20;83.30;;;;;;5018501;28;19985;-82
2023/03/28 13:18:30;;;;;;;;;;;7.30;89.70;;;;;;5018525;28;20381;-82
2023/03/28 13:20:56;;;;;;;;;;;7.30;88.80;;;;;;5018324;28;19913;-82
2023/03/28 13:23:33;;;;;;;;;;;7.40;89.40;;;;;;5018421;28;19993;-82
2023/03/28 13:26:00;;;;;;;;;;;7.60;89.60;;;;;;5036226;28;20415;-82
2023/03/28 13:28:34;;;;;;;;;;;7.60;84.00;;;;;;5018943;28;19914;-82
2023/03/28 13:31:20;;;;;;;;;;;7.70;88.80;;;;;;5018386;28;19913;-82
2023/03/28 13:34:06;;;;;;;;;;;7.90;87.10;;;;;;5018688;28;19913;-82
2023/03/28 13:36:33;;;;;;;;;;;8.10;86.80;;;;;;5017940;28;20274;-81
2023/03/28 13:39:08;;;;;;;;;;;8.30;85.20;;;;;;5018879;28;20358;-82
2023/03/28 13:41:51;;;;;;;;;;;8.40;84.00;;;;;;5036739;28;19948;-83
2023/03/28 13:44:22;;;;;;;;;;;8.30;81.60;;;;;;5018678;28;19913;-83
2023/03/28 13:46:47;;;;;;;;;;;8.40;84.80;;;;;;5018857;28;19916;-82
2023/03/28 13:49:29;;;;;;;;;;;8.40;80.30;;;;;;5036808;28;19999;-82
2023/03/28 13:52:03;;;;;;;;;;;8.30;77.60;;;;;;5037163;28;19953;-81
2023/03/28 13:54:29;;;;;;;;;;;8.20;78.90;;;;;;5020541;28;19913;-81
2023/03/28 13:56:59;;;;;;;;;;;8.30;81.40;;;;;;5039278;28;19917;-81
2023/03/28 13:59:30;;;;;;;;;;;8.30;79.20;;;;;;5040951;28;19956;-81
2023/03/28 14:01:57;;;;;;;;;;;8.30;81.80;;;;;;5022483;28;19971;-82
2023/03/28 14:04:24;;;;;;;;;;;8.20;79.40;;;;;;5003170;28;19924;-82
2023/03/28 14:06:51;;;;;;;;;;;8.20;83.00;;;;;;5019628;28;19909;-81
2023/03/28 14:09:18;;;;;;;;;;;8.20;83.70;;;;;;5019572;28;19909;-81
2023/03/28 14:11:44;;;;;;;;;;;8.40;85.20;;;;;;5036922;28;19939;-81
2023/03/28 14:14:16;;;;;;;;;;;8.60;82.60;;;;;;5037236;28;19913;-81
2023/03/28 14:16:43;;;;;;;;;;;8.70;82.50;;;;;;5020033;28;19967;-81
2023/03/28 14:19:15;;;;;;;;;;;8.70;78.80;;;;;;5037862;28;19915;-80
2023/03/28 14:21:40;;;;;;;;;;;8.70;77.40;;;;;;5037622;28;19909;-81
2023/03/28 14:24:06;;;;;;;;;;;8.50;79.70;;;;;;5037847;28;19963;-81
2023/03/28 14:26:35;;;;;;;;;;;8.30;79.60;;;;;;5019503;28;19913;-80
2023/03/28 14:29:09;;;;;;;;;;;8.30;80.10;;;;;;5037801;28;19997;-80
2023/03/28 14:31:39;;;;;;;;;;;8.30;75.60;;;;;;5019313;28;19910;-80
2023/03/28 14:34:20;;;;;;;;;;;8.30;78.00;;;;;;5037534;28;19910;-80
2023/03/28 14:36:53;;;;;;;;;;;8.30;77.70;;;;;;5019603;28;19917;-80
2023/03/28 14:39:18;;;;;;;;;;;8.30;78.50;;;;;;5037320;28;20251;-80